sensor_id;sensor_type;location;lat;lon;timestamp;pressure;altitude;pressure_sealevel;temperature;humidity
69796;BME280;57073;45.650;9.612;2024-02-21T00:00:36;100141.69;;;8.84;52.20
69796;BME280;57073;45.650;9.612;2024-02-21T00:05:38;100135.91;;;8.87;51.35
69796;BME280;57073;45.650;9.612;2024-02-21T00:10:38;100134.00;;;8.75;50.91
69796;BME280;57073;45.650;9.612;2024-02-21T00:15:39;100129.47;;;8.75;50.63
69796;BME280;57073;45.650;9.612;2024-02-21T00:20:39;100129.88;;;8.72;49.38
69796;BME280;57073;45.650;9.612;2024-02-21T00:25:39;100118.94;;;8.74;48.94
69796;BME280;57073;45.650;9.612;2024-02-21T00:30:40;100131.72;;;8.65;50.21
69796;BME280;57073;45.650;9.612;2024-02-21T00:35:40;100127.97;;;8.46;51.32
69796;BME280;57073;45.650;9.612;2024-02-21T00:40:41;100119.25;;;8.44;50.46
69796;BME280;57073;45.650;9.612;2024-02-21T00:45:42;100123.78;;;8.30;50.66
69796;BME280;57073;45.650;9.612;2024-02-21T00:50:42;100116.97;;;8.34;50.38
69796;BME280;57073;45.650;9.612;2024-02-21T00:55:43;100116.13;;;8.40;49.31
69796;BME280;57073;45.650;9.612;2024-02-21T01:00:43;100118.00;;;8.40;49.69
69796;BME280;57073;45.650;9.612;2024-02-21T01:05:44;100115.53;;;8.45;49.78
69796;BME280;57073;45.650;9.612;2024-02-21T01:10:44;100108.66;;;8.22;48.47
69796;BME280;57073;45.650;9.612;2024-02-21T01:15:44;100112.13;;;8.16;49.43
69796;BME280;57073;45.650;9.612;2024-02-21T01:20:45;100114.41;;;8.12;48.75
69796;BME280;57073;45.650;9.612;2024-02-21T01:25:45;100114.03;;;8.22;48.75
69796;BME280;57073;45.650;9.612;2024-02-21T01:30:45;100108.22;;;8.12;47.14
69796;BME280;57073;45.650;9.612;2024-02-21T01:35:46;100101.41;;;8.09;46.63
69796;BME280;57073;45.650;9.612;2024-02-21T01:40:47;100107.50;;;7.90;46.43
69796;BME280;57073;45.650;9.612;2024-02-21T01:45:49;100100.53;;;8.02;47.03
69796;BME280;57073;45.650;9.612;2024-02-21T01:50:51;100103.47;;;8.14;47.89
69796;BME280;57073;45.650;9.612;2024-02-21T01:55:52;100102.19;;;8.03;48.69
69796;BME280;57073;45.650;9.612;2024-02-21T02:00:53;100093.91;;;8.05;48.09
69796;BME280;57073;45.650;9.612;2024-02-21T02:05:56;100091.34;;;7.83;49.83
69796;BME280;57073;45.650;9.612;2024-02-21T02:10:56;100090.03;;;7.72;50.13
69796;BME280;57073;45.650;9.612;2024-02-21T02:15:57;100096.25;;;7.73;48.94
69796;BME280;57073;45.650;9.612;2024-02-21T02:20:57;100097.84;;;7.61;50.16
69796;BME280;57073;45.650;9.612;2024-02-21T02:25:58;100097.41;;;7.57;47.48
69796;BME280;57073;45.650;9.612;2024-02-21T02:30:58;100089.53;;;7.27;47.94
69796;BME280;57073;45.650;9.612;2024-02-21T02:35:59;100090.72;;;7.18;47.84
69796;BME280;57073;45.650;9.612;2024-02-21T02:40:59;100098.38;;;7.21;46.41
69796;BME280;57073;45.650;9.612;2024-02-21T02:46:00;100103.31;;;7.24;46.51
69796;BME280;57073;45.650;9.612;2024-02-21T02:51:01;100111.16;;;7.19;45.82
69796;BME280;57073;45.650;9.612;2024-02-21T02:56:01;100106.06;;;7.03;44.38
69796;BME280;57073;45.650;9.612;2024-02-21T03:01:02;100101.53;;;7.03;44.19
69796;BME280;57073;45.650;9.612;2024-02-21T03:06:03;100103.84;;;7.06;42.90
69796;BME280;57073;45.650;9.612;2024-02-21T03:11:03;100091.69;;;7.10;42.57
69796;BME280;57073;45.650;9.612;2024-02-21T03:16:04;100097.69;;;7.12;42.31
69796;BME280;57073;45.650;9.612;2024-02-21T03:21:04;100093.31;;;7.11;41.97
69796;BME280;57073;45.650;9.612;2024-02-21T03:26:05;100099.72;;;7.10;41.73
69796;BME280;57073;45.650;9.612;2024-02-21T03:31:05;100097.88;;;7.11;41.53
69796;BME280;57073;45.650;9.612;2024-02-21T03:36:06;100092.88;;;7.08;40.99
69796;BME280;57073;45.650;9.612;2024-02-21T03:41:06;100085.50;;;7.10;41.28
69796;BME280;57073;45.650;9.612;2024-02-21T03:46:07;100093.75;;;7.08;41.69
69796;BME280;57073;45.650;9.612;2024-02-21T03:51:07;100100.75;;;7.09;42.45
69796;BME280;57073;45.650;9.612;2024-02-21T03:56:08;100100.09;;;7.07;42.94
69796;BME280;57073;45.650;9.612;2024-02-21T04:01:08;100100.81;;;7.16;43.90
69796;BME280;57073;45.650;9.612;2024-02-21T04:06:08;100115.88;;;7.17;44.02
69796;BME280;57073;45.650;9.612;2024-02-21T04:11:09;100113.66;;;7.21;43.40
69796;BME280;57073;45.650;9.612;2024-02-21T04:16:09;100114.59;;;7.13;42.60
69796;BME280;57073;45.650;9.612;2024-02-21T04:21:10;100111.09;;;6.91;44.52
69796;BME280;57073;45.650;9.612;2024-02-21T04:26:10;100113.28;;;6.81;45.41
69796;BME280;57073;45.650;9.612;2024-02-21T04:31:11;100119.41;;;6.96;43.97
69796;BME280;57073;45.650;9.612;2024-02-21T04:36:11;100115.47;;;6.92;43.93
69796;BME280;57073;45.650;9.612;2024-02-21T04:41:11;100120.19;;;6.90;44.80
69796;BME280;57073;45.650;9.612;2024-02-21T04:46:12;100123.09;;;6.73;45.60
69796;BME280;57073;45.650;9.612;2024-02-21T04:51:12;100114.31;;;6.79;44.96
69796;BME280;57073;45.650;9.612;2024-02-21T04:56:14;100102.09;;;6.77;44.60
69796;BME280;57073;45.650;9.612;2024-02-21T05:01:14;100095.91;;;6.76;44.40
69796;BME280;57073;45.650;9.612;2024-02-21T05:06:15;100106.72;;;6.83;44.13
69796;BME280;57073;45.650;9.612;2024-02-21T05:11:15;100098.34;;;6.71;43.39
69796;BME280;57073;45.650;9.612;2024-02-21T05:16:16;100108.25;;;6.71;43.13
69796;BME280;57073;45.650;9.612;2024-02-21T05:21:16;100115.72;;;6.75;43.95
69796;BME280;57073;45.650;9.612;2024-02-21T05:26:24;100119.75;;;6.65;44.42
69796;BME280;57073;45.650;9.612;2024-02-21T05:31:25;100113.59;;;6.49;44.91
69796;BME280;57073;45.650;9.612;2024-02-21T05:36:25;100118.00;;;6.57;44.23
69796;BME280;57073;45.650;9.612;2024-02-21T05:41:28;100123.59;;;6.40;44.40
69796;BME280;57073;45.650;9.612;2024-02-21T05:46:28;100117.53;;;6.32;45.63
69796;BME280;57073;45.650;9.612;2024-02-21T05:51:32;100114.03;;;6.16;46.25
69796;BME280;57073;45.650;9.612;2024-02-21T05:56:33;100115.44;;;6.12;45.94
69796;BME280;57073;45.650;9.612;2024-02-21T06:01:34;100127.44;;;6.16;45.75
69796;BME280;57073;45.650;9.612;2024-02-21T06:06:34;100111.03;;;6.05;45.84
69796;BME280;57073;45.650;9.612;2024-02-21T06:11:34;100108.78;;;6.08;45.44
69796;BME280;57073;45.650;9.612;2024-02-21T06:16:37;100111.63;;;6.21;45.15
69796;BME280;57073;45.650;9.612;2024-02-21T06:21:38;100100.88;;;6.36;44.45
69796;BME280;57073;45.650;9.612;2024-02-21T06:26:40;100095.53;;;6.36;44.66
69796;BME280;57073;45.650;9.612;2024-02-21T06:31:40;100100.28;;;6.56;43.83
69796;BME280;57073;45.650;9.612;2024-02-21T06:36:41;100115.75;;;6.60;44.78
69796;BME280;57073;45.650;9.612;2024-02-21T06:41:41;100116.47;;;6.69;44.44
69796;BME280;57073;45.650;9.612;2024-02-21T06:46:42;100120.41;;;6.73;44.88
69796;BME280;57073;45.650;9.612;2024-02-21T06:51:42;100138.38;;;6.94;44.51
69796;BME280;57073;45.650;9.612;2024-02-21T06:56:43;100142.38;;;7.05;44.17
69796;BME280;57073;45.650;9.612;2024-02-21T07:01:48;100151.13;;;6.92;45.36
69796;BME280;57073;45.650;9.612;2024-02-21T07:06:49;100149.53;;;7.20;43.58
69796;BME280;57073;45.650;9.612;2024-02-21T07:11:49;100150.84;;;7.30;43.79
69796;BME280;57073;45.650;9.612;2024-02-21T07:16:50;100152.28;;;7.54;42.98
69796;BME280;57073;45.650;9.612;2024-02-21T07:21:50;100149.34;;;7.78;42.72
69796;BME280;57073;45.650;9.612;2024-02-21T07:26:51;100144.56;;;8.08;42.20
69796;BME280;57073;45.650;9.612;2024-02-21T07:31:51;100148.22;;;8.48;41.94
69796;BME280;57073;45.650;9.612;2024-02-21T07:36:52;100159.06;;;8.82;40.89
69796;BME280;57073;45.650;9.612;2024-02-21T07:41:52;100171.97;;;8.93;42.02
69796;BME280;57073;45.650;9.612;2024-02-21T07:46:53;100176.09;;;9.02;41.26
69796;BME280;57073;45.650;9.612;2024-02-21T07:51:53;100182.13;;;9.24;41.07
69796;BME280;57073;45.650;9.612;2024-02-21T07:56:54;100200.13;;;9.51;41.23
69796;BME280;57073;45.650;9.612;2024-02-21T08:01:57;100190.00;;;9.53;40.93
69796;BME280;57073;45.650;9.612;2024-02-21T08:06:58;100200.97;;;9.64;42.34
69796;BME280;57073;45.650;9.612;2024-02-21T08:12:03;100194.69;;;10.04;42.90
69796;BME280;57073;45.650;9.612;2024-02-21T08:17:04;100199.81;;;10.26;41.74
69796;BME280;57073;45.650;9.612;2024-02-21T08:22:05;100185.06;;;10.41;40.55
69796;BME280;57073;45.650;9.612;2024-02-21T08:27:06;100196.25;;;10.84;40.62
69796;BME280;57073;45.650;9.612;2024-02-21T08:32:06;100194.28;;;10.97;40.04
69796;BME280;57073;45.650;9.612;2024-02-21T08:37:06;100195.88;;;11.12;37.51
69796;BME280;57073;45.650;9.612;2024-02-21T08:42:08;100178.31;;;11.28;36.87
69796;BME280;57073;45.650;9.612;2024-02-21T08:47:08;100178.31;;;11.53;36.59
69796;BME280;57073;45.650;9.612;2024-02-21T08:52:10;100174.34;;;11.81;36.32
69796;BME280;57073;45.650;9.612;2024-02-21T08:57:10;100173.25;;;11.88;35.20
69796;BME280;57073;45.650;9.612;2024-02-21T09:02:10;100178.88;;;12.05;36.17
69796;BME280;57073;45.650;9.612;2024-02-21T09:07:11;100165.31;;;12.42;36.26
69796;BME280;57073;45.650;9.612;2024-02-21T09:12:11;100176.44;;;12.52;35.53
69796;BME280;57073;45.650;9.612;2024-02-21T09:17:11;100170.34;;;12.76;35.67
69796;BME280;57073;45.650;9.612;2024-02-21T09:22:12;100162.00;;;12.89;35.71
69796;BME280;57073;45.650;9.612;2024-02-21T09:27:13;100173.72;;;13.13;35.59
69796;BME280;57073;45.650;9.612;2024-02-21T09:32:13;100176.97;;;13.34;35.55
69796;BME280;57073;45.650;9.612;2024-02-21T09:37:14;100184.28;;;13.45;36.42
69796;BME280;57073;45.650;9.612;2024-02-21T09:42:15;100178.03;;;13.56;36.09
69796;BME280;57073;45.650;9.612;2024-02-21T09:47:24;100185.31;;;13.44;34.59
69796;BME280;57073;45.650;9.612;2024-02-21T09:52:35;100169.53;;;13.17;34.08
69796;BME280;57073;45.650;9.612;2024-02-21T09:57:35;100172.59;;;12.60;33.73
69796;BME280;57073;45.650;9.612;2024-02-21T10:02:36;100174.75;;;12.70;35.96
69796;BME280;57073;45.650;9.612;2024-02-21T10:07:38;100170.47;;;12.62;34.67
69796;BME280;57073;45.650;9.612;2024-02-21T10:12:49;100175.03;;;12.80;35.16
69796;BME280;57073;45.650;9.612;2024-02-21T10:18:01;100180.53;;;13.04;35.50
69796;BME280;57073;45.650;9.612;2024-02-21T10:23:06;100183.34;;;12.97;35.93
69796;BME280;57073;45.650;9.612;2024-02-21T10:28:12;100184.19;;;12.98;35.36
69796;BME280;57073;45.650;9.612;2024-02-21T10:33:15;100174.44;;;13.08;36.55
69796;BME280;57073;45.650;9.612;2024-02-21T10:38:16;100181.78;;;13.43;36.08
69796;BME280;57073;45.650;9.612;2024-02-21T10:43:16;100176.25;;;13.62;36.33
69796;BME280;57073;45.650;9.612;2024-02-21T10:48:29;100163.44;;;13.57;35.95
69796;BME280;57073;45.650;9.612;2024-02-21T10:53:45;100151.50;;;13.58;36.37
69796;BME280;57073;45.650;9.612;2024-02-21T10:58:48;100147.41;;;13.56;36.22
69796;BME280;57073;45.650;9.612;2024-02-21T11:03:51;100132.91;;;13.26;35.53
69796;BME280;57073;45.650;9.612;2024-02-21T11:09:07;100127.06;;;12.87;35.18
69796;BME280;57073;45.650;9.612;2024-02-21T11:14:17;100124.66;;;13.21;37.11
69796;BME280;57073;45.650;9.612;2024-02-21T11:19:28;100109.34;;;13.39;37.29
69796;BME280;57073;45.650;9.612;2024-02-21T11:24:33;100109.22;;;13.22;37.14
69796;BME280;57073;45.650;9.612;2024-02-21T11:29:39;100099.00;;;12.70;36.75
69796;BME280;57073;45.650;9.612;2024-02-21T11:34:41;100092.84;;;12.63;37.55
69796;BME280;57073;45.650;9.612;2024-02-21T11:39:42;100077.53;;;12.57;38.72
69796;BME280;57073;45.650;9.612;2024-02-21T11:44:42;100079.78;;;12.90;37.61
69796;BME280;57073;45.650;9.612;2024-02-21T11:49:46;100074.59;;;12.88;38.32
69796;BME280;57073;45.650;9.612;2024-02-21T11:54:46;100058.94;;;13.14;37.83
69796;BME280;57073;45.650;9.612;2024-02-21T11:59:47;100044.00;;;13.35;38.15
69796;BME280;57073;45.650;9.612;2024-02-21T12:04:48;100026.81;;;13.18;37.06
69796;BME280;57073;45.650;9.612;2024-02-21T12:09:49;100001.63;;;12.94;37.96
69796;BME280;57073;45.650;9.612;2024-02-21T12:14:56;99993.59;;;12.99;38.13
69796;BME280;57073;45.650;9.612;2024-02-21T12:19:58;99986.91;;;12.78;38.07
69796;BME280;57073;45.650;9.612;2024-02-21T12:24:58;99976.16;;;13.18;38.41
69796;BME280;57073;45.650;9.612;2024-02-21T12:29:59;99977.38;;;13.10;39.37
69796;BME280;57073;45.650;9.612;2024-02-21T12:34:59;99974.19;;;13.14;39.14
69796;BME280;57073;45.650;9.612;2024-02-21T12:40:00;99957.56;;;13.22;39.28
69796;BME280;57073;45.650;9.612;2024-02-21T12:45:02;99960.63;;;13.37;40.39
69796;BME280;57073;45.650;9.612;2024-02-21T12:50:03;99955.47;;;13.64;40.37
69796;BME280;57073;45.650;9.612;2024-02-21T12:55:07;99949.88;;;13.71;40.66
69796;BME280;57073;45.650;9.612;2024-02-21T13:00:11;99951.16;;;13.80;41.02
69796;BME280;57073;45.650;9.612;2024-02-21T13:05:12;99935.44;;;13.94;40.75
69796;BME280;57073;45.650;9.612;2024-02-21T13:10:12;99931.50;;;13.85;39.55
69796;BME280;57073;45.650;9.612;2024-02-21T13:15:14;99919.94;;;13.78;40.18
69796;BME280;57073;45.650;9.612;2024-02-21T13:20:16;99919.66;;;13.91;39.97
69796;BME280;57073;45.650;9.612;2024-02-21T13:25:16;99903.19;;;13.81;40.41
69796;BME280;57073;45.650;9.612;2024-02-21T13:30:20;99902.53;;;14.02;40.54
69796;BME280;57073;45.650;9.612;2024-02-21T13:35:20;99887.06;;;13.74;40.28
69796;BME280;57073;45.650;9.612;2024-02-21T13:40:21;99892.84;;;13.78;40.08
69796;BME280;57073;45.650;9.612;2024-02-21T13:45:21;99874.66;;;13.90;40.43
69796;BME280;57073;45.650;9.612;2024-02-21T13:50:24;99871.19;;;13.95;40.67
69796;BME280;57073;45.650;9.612;2024-02-21T13:55:29;99858.38;;;13.90;40.38
69796;BME280;57073;45.650;9.612;2024-02-21T14:00:29;99861.25;;;14.00;40.17
69796;BME280;57073;45.650;9.612;2024-02-21T14:05:30;99849.59;;;14.00;39.72
69796;BME280;57073;45.650;9.612;2024-02-21T14:10:30;99836.78;;;13.95;40.30
69796;BME280;57073;45.650;9.612;2024-02-21T14:15:30;99820.78;;;13.94;40.67
69796;BME280;57073;45.650;9.612;2024-02-21T14:20:31;99814.44;;;13.88;40.64
69796;BME280;57073;45.650;9.612;2024-02-21T14:25:32;99808.50;;;13.91;40.80
69796;BME280;57073;45.650;9.612;2024-02-21T14:30:33;99796.50;;;14.04;41.43
69796;BME280;57073;45.650;9.612;2024-02-21T14:35:33;99792.56;;;13.95;41.31
69796;BME280;57073;45.650;9.612;2024-02-21T14:40:34;99782.94;;;14.04;41.28
69796;BME280;57073;45.650;9.612;2024-02-21T14:45:34;99777.72;;;13.97;41.77
69796;BME280;57073;45.650;9.612;2024-02-21T14:50:35;99771.94;;;14.11;41.73
69796;BME280;57073;45.650;9.612;2024-02-21T14:55:35;99758.94;;;14.13;41.44
69796;BME280;57073;45.650;9.612;2024-02-21T15:00:35;99764.25;;;14.02;41.93
69796;BME280;57073;45.650;9.612;2024-02-21T15:05:36;99761.94;;;13.94;42.45
69796;BME280;57073;45.650;9.612;2024-02-21T15:10:38;99751.66;;;13.96;43.11
69796;BME280;57073;45.650;9.612;2024-02-21T15:15:38;99748.13;;;13.96;42.93
69796;BME280;57073;45.650;9.612;2024-02-21T15:20:38;99732.34;;;13.76;43.38
69796;BME280;57073;45.650;9.612;2024-02-21T15:25:39;99727.25;;;13.79;43.32
69796;BME280;57073;45.650;9.612;2024-02-21T15:30:39;99723.66;;;13.74;43.46
69796;BME280;57073;45.650;9.612;2024-02-21T15:35:40;99720.19;;;13.78;43.56
69796;BME280;57073;45.650;9.612;2024-02-21T15:40:41;99718.56;;;13.77;43.15
69796;BME280;57073;45.650;9.612;2024-02-21T15:45:42;99719.84;;;13.75;43.04
69796;BME280;57073;45.650;9.612;2024-02-21T15:50:42;99712.97;;;13.67;43.05
69796;BME280;57073;45.650;9.612;2024-02-21T15:55:42;99710.16;;;13.62;43.10
69796;BME280;57073;45.650;9.612;2024-02-21T16:00:43;99704.59;;;13.52;42.67
69796;BME280;57073;45.650;9.612;2024-02-21T16:05:43;99702.63;;;13.47;42.41
69796;BME280;57073;45.650;9.612;2024-02-21T16:10:44;99710.09;;;13.40;42.64
69796;BME280;57073;45.650;9.612;2024-02-21T16:15:44;99714.13;;;13.37;42.65
69796;BME280;57073;45.650;9.612;2024-02-21T16:20:47;99710.34;;;13.38;42.85
69796;BME280;57073;45.650;9.612;2024-02-21T16:25:50;99713.56;;;13.35;42.97
69796;BME280;57073;45.650;9.612;2024-02-21T16:30:50;99715.31;;;13.29;43.42
69796;BME280;57073;45.650;9.612;2024-02-21T16:35:51;99707.38;;;13.23;43.76
69796;BME280;57073;45.650;9.612;2024-02-21T16:40:51;99716.03;;;13.08;44.21
69796;BME280;57073;45.650;9.612;2024-02-21T16:45:53;99708.69;;;12.91;44.60
69796;BME280;57073;45.650;9.612;2024-02-21T16:50:53;99701.69;;;12.79;44.56
69796;BME280;57073;45.650;9.612;2024-02-21T16:55:54;99700.91;;;12.66;45.08
69796;BME280;57073;45.650;9.612;2024-02-21T17:00:54;99701.13;;;12.65;44.83
69796;BME280;57073;45.650;9.612;2024-02-21T17:05:54;99702.94;;;12.47;45.89
69796;BME280;57073;45.650;9.612;2024-02-21T17:10:56;99708.81;;;12.44;46.59
69796;BME280;57073;45.650;9.612;2024-02-21T17:15:56;99719.78;;;12.26;47.75
69796;BME280;57073;45.650;9.612;2024-02-21T17:20:57;99705.00;;;12.17;46.95
69796;BME280;57073;45.650;9.612;2024-02-21T17:25:57;99707.22;;;12.08;47.13
69796;BME280;57073;45.650;9.612;2024-02-21T17:30:57;99706.19;;;11.85;47.91
69796;BME280;57073;45.650;9.612;2024-02-21T17:35:58;99716.28;;;11.90;48.05
69796;BME280;57073;45.650;9.612;2024-02-21T17:40:58;99705.72;;;12.00;47.67
69796;BME280;57073;45.650;9.612;2024-02-21T17:46:02;99703.81;;;12.12;47.54
69796;BME280;57073;45.650;9.612;2024-02-21T17:51:03;99704.28;;;12.09;47.97
69796;BME280;57073;45.650;9.612;2024-02-21T17:56:04;99701.47;;;12.16;47.67
69796;BME280;57073;45.650;9.612;2024-02-21T18:01:04;99696.78;;;12.00;48.17
69796;BME280;57073;45.650;9.612;2024-02-21T18:06:04;99697.28;;;11.85;48.78
69796;BME280;57073;45.650;9.612;2024-02-21T18:11:05;99693.75;;;11.72;49.33
69796;BME280;57073;45.650;9.612;2024-02-21T18:16:06;99700.66;;;11.68;49.20
69796;BME280;57073;45.650;9.612;2024-02-21T18:21:08;99698.75;;;11.57;50.12
69796;BME280;57073;45.650;9.612;2024-02-21T18:26:09;99689.56;;;11.34;50.59
69796;BME280;57073;45.650;9.612;2024-02-21T18:31:09;99687.91;;;11.33;50.75
69796;BME280;57073;45.650;9.612;2024-02-21T18:36:13;99693.28;;;11.22;50.81
69796;BME280;57073;45.650;9.612;2024-02-21T18:41:13;99691.31;;;11.29;50.84
69796;BME280;57073;45.650;9.612;2024-02-21T18:46:14;99689.75;;;11.21;51.49
69796;BME280;57073;45.650;9.612;2024-02-21T18:51:16;99681.56;;;11.16;51.54
69796;BME280;57073;45.650;9.612;2024-02-21T18:56:16;99689.88;;;11.26;51.35
69796;BME280;57073;45.650;9.612;2024-02-21T19:01:17;99688.34;;;11.18;51.35
69796;BME280;57073;45.650;9.612;2024-02-21T19:06:20;99668.88;;;11.16;51.66
69796;BME280;57073;45.650;9.612;2024-02-21T19:11:21;99670.75;;;11.16;51.37
69796;BME280;57073;45.650;9.612;2024-02-21T19:16:21;99678.38;;;11.19;51.51
69796;BME280;57073;45.650;9.612;2024-02-21T19:21:22;99665.00;;;11.24;51.27
69796;BME280;57073;45.650;9.612;2024-02-21T19:26:22;99671.84;;;11.27;50.72
69796;BME280;57073;45.650;9.612;2024-02-21T19:31:22;99658.06;;;11.28;51.53
69796;BME280;57073;45.650;9.612;2024-02-21T19:36:23;99663.47;;;11.28;50.40
69796;BME280;57073;45.650;9.612;2024-02-21T19:41:23;99664.09;;;10.88;52.37
69796;BME280;57073;45.650;9.612;2024-02-21T19:46:23;99651.91;;;10.97;52.09
69796;BME280;57073;45.650;9.612;2024-02-21T19:51:24;99647.59;;;10.96;51.84
69796;BME280;57073;45.650;9.612;2024-02-21T19:56:25;99647.81;;;10.95;51.87
69796;BME280;57073;45.650;9.612;2024-02-21T20:01:25;99655.31;;;10.63;52.62
69796;BME280;57073;45.650;9.612;2024-02-21T20:06:25;99634.53;;;10.51;53.37
69796;BME280;57073;45.650;9.612;2024-02-21T20:11:26;99649.09;;;10.62;52.98
69796;BME280;57073;45.650;9.612;2024-02-21T20:16:29;99647.28;;;10.44;53.76
69796;BME280;57073;45.650;9.612;2024-02-21T20:21:29;99648.84;;;10.33;53.79
69796;BME280;57073;45.650;9.612;2024-02-21T20:26:30;99646.38;;;10.32;53.74
69796;BME280;57073;45.650;9.612;2024-02-21T20:31:30;99651.78;;;10.32;54.55
69796;BME280;57073;45.650;9.612;2024-02-21T20:36:30;99640.00;;;10.26;54.72
69796;BME280;57073;45.650;9.612;2024-02-21T20:41:31;99626.06;;;10.29;54.19
69796;BME280;57073;45.650;9.612;2024-02-21T20:46:32;99631.53;;;10.22;54.39
69796;BME280;57073;45.650;9.612;2024-02-21T20:51:32;99618.97;;;10.16;54.56
69796;BME280;57073;45.650;9.612;2024-02-21T20:56:33;99610.34;;;10.26;53.17
69796;BME280;57073;45.650;9.612;2024-02-21T21:01:33;99602.84;;;10.28;54.01
69796;BME280;57073;45.650;9.612;2024-02-21T21:06:34;99604.59;;;10.22;53.21
69796;BME280;57073;45.650;9.612;2024-02-21T21:11:37;99583.25;;;10.21;53.86
69796;BME280;57073;45.650;9.612;2024-02-21T21:16:37;99591.06;;;10.11;54.38
69796;BME280;57073;45.650;9.612;2024-02-21T21:21:38;99585.56;;;10.17;53.82
69796;BME280;57073;45.650;9.612;2024-02-21T21:26:38;99569.88;;;10.14;53.56
69796;BME280;57073;45.650;9.612;2024-02-21T21:31:39;99576.78;;;9.92;54.49
69796;BME280;57073;45.650;9.612;2024-02-21T21:36:39;99561.50;;;10.04;53.75
69796;BME280;57073;45.650;9.612;2024-02-21T21:41:39;99560.16;;;9.95;54.36
69796;BME280;57073;45.650;9.612;2024-02-21T21:46:40;99552.31;;;9.93;53.49
69796;BME280;57073;45.650;9.612;2024-02-21T21:51:43;99547.75;;;9.94;53.49
69796;BME280;57073;45.650;9.612;2024-02-21T21:56:44;99540.72;;;9.93;53.45
69796;BME280;57073;45.650;9.612;2024-02-21T22:01:45;99542.50;;;9.99;53.43
69796;BME280;57073;45.650;9.612;2024-02-21T22:06:46;99546.25;;;9.79;54.26
69796;BME280;57073;45.650;9.612;2024-02-21T22:11:46;99538.41;;;9.78;54.95
69796;BME280;57073;45.650;9.612;2024-02-21T22:16:47;99532.78;;;9.79;55.11
69796;BME280;57073;45.650;9.612;2024-02-21T22:21:47;99541.47;;;9.81;55.47
69796;BME280;57073;45.650;9.612;2024-02-21T22:26:47;99542.66;;;9.67;56.40
69796;BME280;57073;45.650;9.612;2024-02-21T22:31:50;99545.22;;;9.80;55.77
69796;BME280;57073;45.650;9.612;2024-02-21T22:36:50;99526.50;;;9.85;54.37
69796;BME280;57073;45.650;9.612;2024-02-21T22:41:51;99526.44;;;9.74;54.48
69796;BME280;57073;45.650;9.612;2024-02-21T22:46:51;99527.63;;;9.78;53.87
69796;BME280;57073;45.650;9.612;2024-02-21T22:51:51;99517.16;;;9.88;53.73
69796;BME280;57073;45.650;9.612;2024-02-21T22:56:52;99515.25;;;9.89;53.69
69796;BME280;57073;45.650;9.612;2024-02-21T23:01:52;99500.63;;;9.84;52.74
69796;BME280;57073;45.650;9.612;2024-02-21T23:06:53;99487.91;;;9.73;52.58
69796;BME280;57073;45.650;9.612;2024-02-21T23:11:54;99480.00;;;9.78;52.52
69796;BME280;57073;45.650;9.612;2024-02-21T23:16:54;99477.97;;;9.74;53.11
69796;BME280;57073;45.650;9.612;2024-02-21T23:21:55;99476.22;;;9.79;52.21
69796;BME280;57073;45.650;9.612;2024-02-21T23:26:55;99469.44;;;9.77;52.68
69796;BME280;57073;45.650;9.612;2024-02-21T23:31:55;99474.38;;;9.80;52.15
69796;BME280;57073;45.650;9.612;2024-02-21T23:36:56;99471.50;;;9.93;51.62
69796;BME280;57073;45.650;9.612;2024-02-21T23:41:56;99480.53;;;9.99;50.99
69796;BME280;57073;45.650;9.612;2024-02-21T23:46:57;99477.16;;;10.03;52.71
69796;BME280;57073;45.650;9.612;2024-02-21T23:51:58;99461.81;;;10.04;54.39
69796;BME280;57073;45.650;9.612;2024-02-21T23:57:00;99453.22;;;9.95;54.27
